Mont-Joli, Canada
Current Conditions -  °F | °C
As of 5:00 AM on Wednesday 26 Nov 2014 (Local Time) from CYYY Reporting Station
Overcast Overcast  
Wind Chill: 23°   Ceiling: 4500
Heat Index: 34°   Visibility: 15mi
Dew Point: 25°   Wind: 18mph
Humidity: 70%   Direction: 290°WNW
Pressure: 29.99"   Gusts: 28mph
Location:  48.59°N, 68.19°W
Report Text: CYYY 261000Z 29016G24KT 15SM OVC045 01/M04 A2999 RMK SC8 SLP159
Loading
Personal Weather Stations






























Interactive Weather Map New forecast layout! Learn more

10-Day Weather Forecast

Advertisements
Track Severe Weather on mobile